»·PEaware :: SKW3514 KSEA-KBOI

SKW3514 :: KSEA-KBOI

FLIGHT INFORMATION

Flight Status: Arrived
Operator:
SkyWest Airlines
More flights by this operator :: More flights under this callsign
Pilot: Adam M. (17337)
Aircraft: Unknown
(E175)
More flights by this aircraft type
Origin: KSEA Seattle-Tacoma Intl
United States
Destination: KBOI Boise Air Terminal/Gowen
United States
More flights between these airports :: More routes between these airports
Route: SUMMA2 SUMMA J54 BKE DEVLE KYAAN3
File this flight plan on PilotEdge
Remarks: RMK / SIMBRIEF
Altitude:
(Current/Filed)
35,000ft
Speed:
(Current/Filed)
449kts
Departed: 12-Apr-20 09:35 AM
Arrived: 12-Apr-20 10:37 AM
Distance/Time
Traveled:
346nm/1:02
Distance/Time
To Go:
Arrived

Flight Plot

Page will automatically refresh every two minutes.


Map Options




Map Legend


Flown Route
Filed Route
Departure Airport
Arrival Airport
Navaid (VOR, NDB)
Fix

Horizontal Profiles

Position Reports

Time Latitude Longitude Heading Altitude Ground
Speed
12-Apr-20 09:04 47.441709 -122.301654 37 444ft 0kts
12-Apr-20 09:05 47.441709 -122.301654 37 444ft 0kts
12-Apr-20 09:06 47.441709 -122.301654 37 444ft 0kts
12-Apr-20 09:07 47.441709 -122.301654 37 444ft 0kts
12-Apr-20 09:08 47.441709 -122.301654 37 444ft 0kts
12-Apr-20 09:09 47.441709 -122.301654 37 444ft 0kts
12-Apr-20 09:10 47.441709 -122.301654 37 444ft 0kts
12-Apr-20 09:11 47.441709 -122.301654 37 444ft 0kts
12-Apr-20 09:12 47.441709 -122.301654 37 444ft 0kts
12-Apr-20 09:13 47.441709 -122.301654 37 444ft 0kts
12-Apr-20 09:14 47.441709 -122.301654 37 444ft 0kts
12-Apr-20 09:15 47.441709 -122.301654 37 444ft 0kts
12-Apr-20 09:16 47.441709 -122.301654 37 444ft 0kts
12-Apr-20 09:17 47.441709 -122.301654 37 444ft 0kts
12-Apr-20 09:18 47.441709 -122.301654 37 444ft 0kts
12-Apr-20 09:19 47.441709 -122.301654 37 444ft 0kts
12-Apr-20 09:20 47.441709 -122.301654 37 444ft 0kts
12-Apr-20 09:21 47.441709 -122.301654 37 444ft 0kts
12-Apr-20 09:22 47.441709 -122.301654 37 444ft 0kts
12-Apr-20 09:23 47.441492 -122.301915 44 444ft 2kts
12-Apr-20 09:24 47.441508 -122.302481 157 444ft 0kts
12-Apr-20 09:25 47.441500 -122.302475 157 444ft 0kts
12-Apr-20 09:26 47.441490 -122.302470 157 444ft 0kts
12-Apr-20 09:27 47.440858 -122.302146 165 444ft 13kts
12-Apr-20 09:28 47.439900 -122.306219 353 444ft 12kts
12-Apr-20 09:29 47.442317 -122.306188 359 444ft 14kts
12-Apr-20 09:30 47.445721 -122.306176 1 444ft 17kts
12-Apr-20 09:31 47.452629 -122.306232 359 444ft 23kts
12-Apr-20 09:32 47.459268 -122.306169 359 444ft 22kts
12-Apr-20 09:33 47.463283 -122.307491 216 444ft 12kts
12-Apr-20 09:34 47.449228 -122.307853 180 525ft 167kts
12-Apr-20 09:35 47.393872 -122.316982 187 4056ft 219kts
12-Apr-20 09:36 47.326172 -122.317504 174 7502ft 266kts
12-Apr-20 09:37 47.249711 -122.292035 156 11383ft 327kts
12-Apr-20 09:38 47.154366 -122.241970 163 14424ft 388kts
12-Apr-20 09:39 47.047646 -122.191466 162 17699ft 419kts
12-Apr-20 09:40 46.933142 -122.137018 163 20780ft 443kts
12-Apr-20 09:41 46.813175 -122.080288 163 23169ft 463kts
12-Apr-20 09:42 46.689294 -122.022029 163 23881ft 485kts
12-Apr-20 09:43 46.573163 -121.930937 120 27067ft 474kts
12-Apr-20 09:44 46.515929 -121.762143 109 29815ft 467kts
12-Apr-20 09:45 46.457243 -121.593873 113 32125ft 469kts
12-Apr-20 09:46 46.394204 -121.429603 115 34415ft 463kts
12-Apr-20 09:47 46.329583 -121.267079 116 35360ft 468kts
12-Apr-20 09:48 46.261726 -121.098805 116 35367ft 499kts
12-Apr-20 09:49 46.190562 -120.924359 117 35367ft 506kts
12-Apr-20 09:50 46.118636 -120.749393 117 35368ft 506kts
12-Apr-20 09:51 46.048330 -120.579368 117 35368ft 506kts
12-Apr-20 09:52 45.976167 -120.405892 118 35378ft 507kts
12-Apr-20 09:53 45.903400 -120.232059 118 35379ft 507kts
12-Apr-20 09:54 45.830387 -120.058718 118 35377ft 507kts
12-Apr-20 09:55 45.756986 -119.885536 118 35359ft 508kts
12-Apr-20 09:56 45.683487 -119.713177 118 35353ft 508kts
12-Apr-20 09:57 45.609499 -119.540734 118 35349ft 508kts
12-Apr-20 09:58 45.535296 -119.368836 119 35343ft 510kts
12-Apr-20 09:59 45.463578 -119.203705 119 35344ft 510kts
12-Apr-20 10:00 45.388490 -119.031840 119 35336ft 510kts
12-Apr-20 10:02 45.313309 -118.860802 119 35323ft 510kts
12-Apr-20 10:03 45.237744 -118.689928 119 35283ft 511kts
12-Apr-20 10:04 45.161896 -118.519440 120 35276ft 511kts
12-Apr-20 10:05 45.085970 -118.349793 120 35273ft 512kts
12-Apr-20 10:06 45.009367 -118.179659 120 35271ft 512kts
12-Apr-20 10:07 44.932858 -118.010765 120 35261ft 508kts
12-Apr-20 10:08 44.856322 -117.842772 120 35251ft 508kts
12-Apr-20 10:09 44.749024 -117.717443 151 35256ft 509kts
12-Apr-20 10:10 44.628397 -117.612479 149 34116ft 507kts
12-Apr-20 10:11 44.509276 -117.507286 150 31828ft 509kts
12-Apr-20 10:12 44.388447 -117.401882 150 29540ft 511kts
12-Apr-20 10:13 44.269072 -117.298476 150 27242ft 496kts
12-Apr-20 10:14 44.160220 -117.187133 136 24653ft 478kts
12-Apr-20 10:15 44.067442 -117.062700 135 21188ft 445kts
12-Apr-20 10:16 43.980997 -116.948505 136 17899ft 418kts
12-Apr-20 10:17 43.915694 -116.824711 121 14794ft 382kts
12-Apr-20 10:18 43.859020 -116.706688 120 11867ft 353kts
12-Apr-20 10:18 43.816687 -116.619779 121 11165ft 303kts
12-Apr-20 10:20 43.766022 -116.517617 121 10536ft 259kts
12-Apr-20 10:21 43.725912 -116.436898 122 10032ft 251kts
12-Apr-20 10:21 43.693000 -116.370855 122 9613ft 248kts
12-Apr-20 10:22 43.661472 -116.287530 113 9119ft 243kts
12-Apr-20 10:24 43.626005 -116.185658 114 8574ft 267kts
12-Apr-20 10:25 43.593481 -116.092400 114 8149ft 270kts
12-Apr-20 10:25 43.567833 -116.018917 114 8012ft 270kts
12-Apr-20 10:26 43.535234 -115.925604 114 7999ft 270kts
12-Apr-20 10:27 43.503519 -115.834952 114 7986ft 250kts
12-Apr-20 10:28 43.459540 -115.773842 186 7888ft 245kts
12-Apr-20 10:29 43.427009 -115.845700 263 6716ft 232kts
12-Apr-20 10:30 43.449527 -115.916583 345 6627ft 220kts
12-Apr-20 10:31 43.486281 -115.977757 288 6309ft 225kts
12-Apr-20 10:32 43.506017 -116.049194 297 5316ft 169kts
12-Apr-20 10:33 43.523100 -116.099201 297 4401ft 129kts
12-Apr-20 10:34 43.538087 -116.142864 298 3823ft 123kts
12-Apr-20 10:35 43.552669 -116.185461 298 3180ft 121kts
12-Apr-20 10:36 43.563566 -116.217418 295 2882ft 30kts
12-Apr-20 10:37 43.566406 -116.224051 2 2882ft 11kts
12-Apr-20 10:38 43.565543 -116.219481 116 2882ft 18kts
12-Apr-20 10:39 43.566814 -116.217502 356 2882ft 10kts
12-Apr-20 10:40 43.567249 -116.218464 268 2882ft 0kts
12-Apr-20 10:41 43.567249 -116.218464 268 2882ft 0kts
12-Apr-20 10:42 43.567249 -116.218464 268 2882ft 0kts
12-Apr-20 10:43 43.567249 -116.218464 268 2882ft 0kts
12-Apr-20 10:44 43.567249 -116.218464 268 2882ft 0kts
12-Apr-20 10:45 43.567249 -116.218464 268 2882ft 0kts
12-Apr-20 10:46 43.567249 -116.218464 268 2882ft 0kts
12-Apr-20 10:47 43.567249 -116.218464 268 2882ft 0kts
12-Apr-20 10:48 43.567249 -116.218464 268 2882ft 0kts

Navigation Log

Ident Type
Flight plan parsing failed, navigation log unavailable